Time;durP1;ratioP1;P1;durP2;ratioP2;P2;SDS_P1;SDS_P2;PMS_P1;PMS_P2;Temp;Humidity;BMP_temperature;BMP_pressure;BME280_temperature;BME280_humidity;BME280_pressure;Samples;Min_cycle;Max_cycle;Signal;HPM_P1;HPM_P2
2023/07/25 00:00:28;;;;;;;4.72;2.55;;;22.60;1.00;;;;;;5199134;28;20504;-68
2023/07/25 00:03:03;;;;;;;3.10;1.95;;;22.60;1.00;;;;;;5191884;28;20046;-69
2023/07/25 00:05:36;;;;;;;3.72;2.20;;;22.50;1.00;;;;;;5148552;28;20107;-68
2023/07/25 00:08:17;;;;;;;3.28;2.22;;;22.50;1.00;;;;;;5173563;28;20022;-69
2023/07/25 00:10:48;;;;;;;3.25;2.50;;;22.50;1.00;;;;;;5201162;28;20063;-68
2023/07/25 00:13:22;;;;;;;3.55;2.33;;;22.40;1.00;;;;;;5183365;28;20545;-69
2023/07/25 00:15:54;;;;;;;4.00;2.55;;;22.50;1.00;;;;;;5165985;28;20047;-69
2023/07/25 00:18:27;;;;;;;2.80;2.00;;;22.40;7.20;;;;;;5184250;28;20033;-68
2023/07/25 00:21:04;;;;;;;3.73;2.50;;;22.40;91.10;;;;;;5196582;28;20340;-70
2023/07/25 00:23:35;;;;;;;3.25;2.28;;;22.40;80.60;;;;;;5180321;28;20038;-68
2023/07/25 00:26:08;;;;;;;3.00;2.03;;;22.40;95.50;;;;;;5170345;28;20048;-68
2023/07/25 00:28:42;;;;;;;4.07;2.35;;;22.40;99.90;;;;;;5202276;28;20048;-69
2023/07/25 00:31:16;;;;;;;3.85;2.50;;;22.40;99.90;;;;;;5198843;28;20055;-69
2023/07/25 00:33:50;;;;;;;5.75;2.60;;;22.40;99.90;;;;;;5199901;28;20037;-69
2023/07/25 00:36:22;;;;;;;3.85;2.05;;;22.40;99.90;;;;;;5184432;28;20037;-69
2023/07/25 00:38:56;;;;;;;2.95;2.22;;;22.40;99.90;;;;;;5206060;28;20037;-69
2023/07/25 00:41:27;;;;;;;5.20;4.38;;;22.40;99.90;;;;;;5183483;28;20057;-72
2023/07/25 00:44:00;;;;;;;2.95;2.10;;;22.40;1.00;;;;;;5181737;28;20030;-69
2023/07/25 00:46:37;;;;;;;2.80;2.17;;;22.40;99.90;;;;;;5194780;28;20026;-69
2023/07/25 00:49:08;;;;;;;3.70;2.28;;;22.40;1.00;;;;;;5179992;28;20045;-69
2023/07/25 00:51:43;;;;;;;2.38;2.03;;;22.40;1.00;;;;;;5180299;28;20034;-69
2023/07/25 00:54:14;;;;;;;;;;;22.40;99.90;;;;;;5192586;28;20051;-69
2023/07/25 00:56:47;;;;;;;1.88;1.30;;;22.50;1.00;;;;;;5201340;28;20247;-69
2023/07/25 00:59:21;;;;;;;2.15;1.80;;;22.70;1.00;;;;;;5192418;28;20045;-69
2023/07/25 01:01:52;;;;;;;1.73;1.35;;;22.70;1.00;;;;;;5255011;22;20460;-72
2023/07/25 01:04:27;;;;;;;2.50;1.50;;;22.80;1.00;;;;;;5198773;28;20089;-73
2023/07/25 01:07:02;;;;;;;1.98;1.50;;;22.90;1.00;;;;;;5181550;28;20265;-73
2023/07/25 01:09:39;;;;;;;3.28;1.75;;;22.90;1.00;;;;;;5202571;28;20033;-72
2023/07/25 01:12:14;;;;;;;2.50;1.60;;;22.80;1.00;;;;;;5200407;28;20045;-71
2023/07/25 01:14:45;;;;;;;1.88;1.50;;;22.70;1.00;;;;;;5199585;28;20036;-72
2023/07/25 01:17:21;;;;;;;3.22;1.90;;;22.50;99.90;;;;;;5217188;28;20033;-71
2023/07/25 01:19:54;;;;;;;3.30;1.42;;;22.40;1.00;;;;;;5218448;28;20031;-73
2023/07/25 01:22:26;;;;;;;1.88;1.33;;;22.30;1.00;;;;;;5204101;28;20374;-72
2023/07/25 01:24:57;;;;;;;2.20;1.67;;;22.10;1.00;;;;;;5186095;28;20037;-72
2023/07/25 01:27:37;;;;;;;1.85;1.38;;;22.00;99.90;;;;;;5211497;28;20047;-73
2023/07/25 01:30:16;;;;;;;2.33;1.35;;;21.90;1.00;;;;;;5205326;28;20325;-74
2023/07/25 01:32:53;;;;;;;3.63;1.60;;;21.90;95.50;;;;;;5202749;28;20048;-72
2023/07/25 01:35:24;;;;;;;2.25;1.55;;;21.80;99.90;;;;;;5202643;28;20043;-72
2023/07/25 01:37:57;;;;;;;4.00;2.47;;;22.00;53.40;;;;;;5221667;28;20035;-72
2023/07/25 01:40:30;;;;;;;2.58;1.88;;;22.00;73.80;;;;;;5219987;28;20481;-73
2023/07/25 01:43:01;;;;;;;3.33;1.75;;;22.00;1.00;;;;;;5202698;28;20056;-74
2023/07/25 01:45:35;;;;;;;2.20;1.40;;;22.10;1.00;;;;;;5183676;28;20063;-73
2023/07/25 01:48:07;;;;;;;;;;;22.10;1.00;;;;;;5185619;28;20033;-72
2023/07/25 01:50:38;;;;;;;2.55;1.38;;;22.10;15.30;;;;;;5217539;28;20754;-72
2023/07/25 01:53:09;;;;;;;3.35;1.80;;;22.10;89.40;;;;;;5184941;28;20056;-73
2023/07/25 01:55:43;;;;;;;2.42;1.48;;;22.00;1.00;;;;;;5195715;28;20047;-73
2023/07/25 01:58:17;;;;;;;2.38;1.40;;;22.00;99.90;;;;;;5218234;28;20356;-73
2023/07/25 02:01:01;;;;;;;2.03;1.20;;;21.90;1.00;;;;;;5216036;28;20027;-74
2023/07/25 02:03:36;;;;;;;2.05;1.55;;;21.90;99.90;;;;;;5208128;28;20222;-74
2023/07/25 02:06:13;;;;;;;3.63;1.85;;;21.90;1.00;;;;;;5219975;28;20024;-74
2023/07/25 02:08:47;;;;;;;1.88;1.42;;;22.00;1.00;;;;;;5202505;28;20066;-74
2023/07/25 02:11:19;;;;;;;1.73;1.38;;;22.00;1.00;;;;;;5219174;28;20025;-74
2023/07/25 02:13:50;;;;;;;2.65;1.58;;;22.00;1.00;;;;;;5214072;28;20053;-73
2023/07/25 02:16:24;;;;;;;2.67;1.58;;;22.10;1.00;;;;;;5209407;28;20257;-73
2023/07/25 02:18:55;;;;;;;1.40;1.20;;;22.10;1.00;;;;;;5219793;28;20331;-73
2023/07/25 02:21:26;;;;;;;2.65;1.58;;;22.10;1.00;;;;;;5214710;28;20253;-73
2023/07/25 02:23:57;;;;;;;2.58;1.15;;;22.00;1.00;;;;;;5219629;28;20029;-73
2023/07/25 02:26:33;;;;;;;2.10;1.27;;;22.00;1.00;;;;;;5218468;28;20209;-73
2023/07/25 02:29:05;;;;;;;1.63;1.50;;;21.90;99.90;;;;;;5214130;28;20044;-74
2023/07/25 02:31:41;;;;;;;1.50;1.20;;;21.70;99.90;;;;;;5215702;28;20233;-73
2023/07/25 02:34:15;;;;;;;3.00;1.52;;;21.60;1.00;;;;;;5219514;28;20043;-73
2023/07/25 02:36:46;;;;;;;3.13;1.70;;;21.50;1.00;;;;;;5201615;28;20037;-72
2023/07/25 02:39:19;;;;;;;1.92;1.38;;;21.40;1.00;;;;;;5218662;28;20033;-73
2023/07/25 02:41:52;;;;;;;1.60;1.30;;;21.30;1.00;;;;;;5202424;28;20428;-73
2023/07/25 02:44:26;;;;;;;3.92;1.65;;;21.10;1.00;;;;;;5217602;28;20044;-73
2023/07/25 02:46:59;;;;;;;1.90;1.60;;;20.90;99.90;;;;;;5216660;28;20029;-73
2023/07/25 02:49:31;;;;;;;2.17;1.40;;;20.80;1.00;;;;;;5216272;28;20073;-73
2023/07/25 02:52:02;;;;;;;1.98;1.48;;;20.60;1.00;;;;;;5223275;28;20036;-72
2023/07/25 02:54:34;;;;;;;2.72;1.83;;;20.50;99.90;;;;;;5235789;28;20025;-73
2023/07/25 02:57:06;;;;;;;1.90;1.30;;;20.50;1.00;;;;;;5218747;28;20029;-73
2023/07/25 02:59:42;;;;;;;2.67;1.60;;;20.60;1.00;;;;;;5234317;28;20021;-72
2023/07/25 03:02:13;;;;;;;2.20;1.60;;;20.50;1.00;;;;;;5199169;28;20059;-72
2023/07/25 03:04:49;;;;;;;3.55;1.80;;;20.50;1.00;;;;;;5197695;28;20029;-74
2023/07/25 03:07:20;;;;;;;1.55;1.45;;;20.50;1.00;;;;;;5218852;28;20039;-72
2023/07/25 03:09:52;;;;;;;2.22;1.60;;;20.50;1.00;;;;;;5206244;28;20041;-71
2023/07/25 03:12:25;;;;;;;5.70;1.90;;;20.40;99.90;;;;;;5207615;28;20051;-73
2023/07/25 03:15:02;;;;;;;2.33;1.70;;;20.40;99.90;;;;;;5220347;28;20029;-73
2023/07/25 03:17:33;;;;;;;3.45;2.30;;;20.40;99.90;;;;;;5215189;28;20040;-74
2023/07/25 03:20:08;;;;;;;2.47;1.60;;;20.40;99.90;;;;;;5218465;28;20486;-74
2023/07/25 03:22:40;;;;;;;2.58;1.70;;;20.50;99.90;;;;;;5219778;28;20043;-74
2023/07/25 03:25:12;;;;;;;1.95;1.30;;;20.50;99.90;;;;;;5213509;28;20132;-73
2023/07/25 03:27:43;;;;;;;1.65;1.52;;;20.50;1.00;;;;;;5206134;28;20029;-74
2023/07/25 03:30:15;;;;;;;2.85;2.05;;;20.50;99.90;;;;;;5182907;28;20047;-74
2023/07/25 03:32:47;;;;;;;1.55;1.40;;;20.40;99.90;;;;;;5217054;28;20043;-74
2023/07/25 03:35:18;;;;;;;4.80;1.80;;;20.30;99.90;;;;;;5218194;28;20047;-74
2023/07/25 03:37:50;;;;;;;1.85;1.50;;;20.30;1.00;;;;;;5219068;28;20023;-73
2023/07/25 03:40:24;;;;;;;2.13;1.67;;;20.30;1.00;;;;;;5218294;28;20607;-73
2023/07/25 03:42:56;;;;;;;2.05;1.60;;;20.20;1.00;;;;;;5219412;28;20033;-74
2023/07/25 03:45:27;;;;;;;3.30;1.95;;;20.30;1.00;;;;;;5214309;28;20036;-73
2023/07/25 03:48:01;;;;;;;2.05;1.50;;;20.30;1.00;;;;;;5217834;28;20037;-73
2023/07/25 03:50:32;;;;;;;2.95;1.67;;;20.50;1.00;;;;;;5201278;28;20471;-75
2023/07/25 03:53:05;;;;;;;2.08;1.80;;;20.50;1.00;;;;;;5219496;28;20044;-73
2023/07/25 03:55:36;;;;;;;3.72;1.88;;;20.70;99.90;;;;;;5200887;28;20037;-73
2023/07/25 03:58:08;;;;;;;2.47;1.83;;;20.90;1.00;;;;;;5216091;28;20013;-74
2023/07/25 04:00:44;;;;;;;2.30;1.73;;;20.90;1.00;;;;;;5195393;28;20047;-73
2023/07/25 04:03:17;;;;;;;2.65;1.65;;;21.10;1.00;;;;;;5218154;28;20033;-74
2023/07/25 04:05:54;;;;;;;2.17;1.63;;;21.10;1.00;;;;;;5217307;28;20170;-73
2023/07/25 04:08:28;;;;;;;2.50;1.75;;;21.20;1.00;;;;;;5218646;28;20043;-72
2023/07/25 04:11:03;;;;;;;2.67;1.55;;;21.40;99.90;;;;;;5201137;28;20041;-72
2023/07/25 04:13:35;;;;;;;2.67;1.40;;;21.50;99.90;;;;;;5218490;28;20040;-72
2023/07/25 04:16:08;;;;;;;4.47;1.85;;;21.50;99.90;;;;;;5215700;28;20033;-73
2023/07/25 04:18:39;;;;;;;3.20;1.80;;;21.70;1.00;;;;;;5221554;28;20028;-72
2023/07/25 04:21:13;;;;;;;3.38;1.63;;;21.70;21.90;;;;;;5187787;28;20041;-70
2023/07/25 04:23:48;;;;;;;2.45;1.75;;;21.70;1.00;;;;;;5223298;28;20037;-72
2023/07/25 04:26:19;;;;;;;3.10;1.70;;;21.80;1.00;;;;;;5204232;28;20032;-71
2023/07/25 04:28:53;;;;;;;2.45;1.65;;;22.00;1.00;;;;;;5184323;28;20052;-74
2023/07/25 04:31:26;;;;;;;2.63;1.35;;;21.90;1.00;;;;;;5207832;28;20341;-71
2023/07/25 04:33:58;;;;;;;2.33;1.48;;;22.10;1.00;;;;;;5204637;28;20049;-70
2023/07/25 04:36:30;;;;;;;2.53;1.52;;;22.30;1.00;;;;;;5200017;28;20041;-73
2023/07/25 04:39:01;;;;;;;2.00;1.75;;;22.50;99.90;;;;;;5195765;28;20038;-72
2023/07/25 04:41:32;;;;;;;2.22;1.33;;;22.40;99.90;;;;;;5183892;28;20671;-73
2023/07/25 04:44:07;;;;;;;1.60;1.27;;;22.30;99.90;;;;;;5197008;28;20048;-72
2023/07/25 04:46:38;;;;;;;1.90;1.40;;;22.30;99.90;;;;;;5220557;28;20033;-72
2023/07/25 04:49:12;;;;;;;2.05;1.45;;;22.40;99.90;;;;;;5220476;28;20035;-72
2023/07/25 04:51:44;;;;;;;2.17;1.60;;;22.70;99.90;;;;;;5221986;28;20033;-71
2023/07/25 04:54:18;;;;;;;4.15;1.88;;;22.80;76.60;;;;;;5202020;28;20045;-72
2023/07/25 04:56:52;;;;;;;2.40;1.55;;;22.80;99.90;;;;;;5202648;28;20047;-71
2023/07/25 04:59:23;;;;;;;3.95;1.58;;;22.90;99.90;;;;;;5202808;28;20028;-72
2023/07/25 05:01:54;;;;;;;1.85;1.25;;;23.00;5.00;;;;;;5211089;28;20029;-72
2023/07/25 05:04:26;;;;;;;2.60;1.50;;;23.10;16.80;;;;;;5215327;28;20032;-73
2023/07/25 05:06:59;;;;;;;3.00;1.40;;;23.20;5.80;;;;;;5214647;28;20348;-71
2023/07/25 05:09:33;;;;;;;2.58;1.40;;;23.50;1.00;;;;;;5197341;28;20041;-71
2023/07/25 05:12:04;;;;;;;1.50;1.40;;;23.60;1.00;;;;;;5230415;28;20033;-72
2023/07/25 05:14:36;;;;;;;1.83;1.50;;;23.60;1.00;;;;;;5213387;28;20262;-72
2023/07/25 05:17:07;;;;;;;2.70;1.50;;;23.90;1.00;;;;;;5212534;28;20021;-70
2023/07/25 05:19:45;;;;;;;3.15;1.92;;;24.10;1.00;;;;;;5213913;28;20257;-71
2023/07/25 05:22:16;;;;;;;4.28;1.40;;;24.10;1.00;;;;;;5196082;28;20043;-71
2023/07/25 05:24:47;;;;;;;3.00;1.95;;;23.90;1.00;;;;;;5187821;28;20517;-71
2023/07/25 05:27:19;;;;;;;1.85;1.33;;;23.70;1.00;;;;;;5209564;28;20044;-71
2023/07/25 05:29:50;;;;;;;2.10;1.80;;;23.50;1.00;;;;;;5215233;28;20029;-72
2023/07/25 05:32:24;;;;;;;1.95;1.75;;;23.10;1.00;;;;;;5209998;28;20067;-72
2023/07/25 05:34:55;;;;;;;2.13;1.80;;;23.10;1.00;;;;;;5216204;28;20432;-72
2023/07/25 05:37:34;;;;;;;6.10;2.10;;;22.90;1.00;;;;;;5197123;28;20033;-72
2023/07/25 05:40:06;;;;;;;3.42;1.63;;;22.70;1.00;;;;;;5213032;28;20040;-71
2023/07/25 05:42:37;;;;;;;2.22;1.60;;;22.50;99.90;;;;;;5192453;28;20364;-72
2023/07/25 05:45:12;;;;;;;2.38;1.85;;;22.40;1.00;;;;;;5191761;28;20029;-68
2023/07/25 05:47:43;;;;;;;2.90;1.80;;;22.20;1.00;;;;;;5199341;28;20037;-71
2023/07/25 05:50:17;;;;;;;3.00;1.98;;;21.20;1.00;;;;;;5212950;28;20033;-67
2023/07/25 05:52:51;;;;;;;2.58;1.70;;;20.40;59.90;;;;;;5196589;28;20079;-70
2023/07/25 05:55:22;;;;;;;2.97;2.10;;;20.00;99.90;;;;;;5191812;28;20029;-69
2023/07/25 05:57:53;;;;;;;3.20;2.20;;;19.70;99.90;;;;;;5206457;28;20043;-68
2023/07/25 06:00:25;;;;;;;3.35;2.33;;;19.50;99.90;;;;;;5209249;28;20554;-69
2023/07/25 06:02:59;;;;;;;3.13;1.95;;;19.30;99.90;;;;;;5164825;28;20062;-68
2023/07/25 06:05:33;;;;;;;3.13;2.30;;;19.30;99.90;;;;;;5188602;28;20030;-68
2023/07/25 06:08:09;;;;;;;;;;;19.20;99.90;;;;;;5187654;28;20032;-68
2023/07/25 06:10:43;;;;;;;3.67;2.33;;;19.20;99.90;;;;;;5182593;28;19916;-69
2023/07/25 06:13:17;;;;;;;2.65;2.00;;;19.10;99.90;;;;;;5157406;28;20065;-70
2023/07/25 06:15:48;;;;;;;3.17;2.30;;;19.10;99.90;;;;;;5203968;28;20059;-67
2023/07/25 06:18:22;;;;;;;4.53;2.25;;;19.10;99.90;;;;;;5173327;28;20036;-69
2023/07/25 06:20:54;;;;;;;3.00;2.17;;;19.10;99.90;;;;;;5192822;28;20033;-69
2023/07/25 06:23:30;;;;;;;3.10;2.10;;;19.20;99.90;;;;;;5193176;28;20033;-69
2023/07/25 06:26:01;;;;;;;2.55;2.00;;;19.20;99.90;;;;;;5194827;28;20044;-70
2023/07/25 06:28:34;;;;;;;4.82;2.55;;;19.10;99.90;;;;;;5196465;28;20041;-69
2023/07/25 06:31:05;;;;;;;3.05;2.13;;;19.00;99.90;;;;;;5193707;28;20053;-69
2023/07/25 06:33:38;;;;;;;5.22;2.60;;;18.80;99.90;;;;;;5192076;28;20041;-70
2023/07/25 06:36:12;;;;;;;3.80;2.73;;;18.70;99.90;;;;;;5174296;28;20052;-70
2023/07/25 06:38:43;;;;;;;5.55;2.40;;;18.60;99.90;;;;;;5188508;28;20210;-70
2023/07/25 06:41:17;;;;;;;3.45;2.67;;;18.50;99.90;;;;;;5192163;28;20033;-70
2023/07/25 06:43:51;;;;;;;3.70;2.70;;;18.50;99.90;;;;;;5195456;28;20041;-69
2023/07/25 06:46:28;;;;;;;4.10;2.80;;;18.30;99.90;;;;;;5194941;28;20029;-69
2023/07/25 06:48:59;;;;;;;3.72;2.50;;;18.30;99.90;;;;;;5196458;28;20241;-68
2023/07/25 06:51:33;;;;;;;2.53;2.28;;;18.20;99.90;;;;;;5197267;28;20229;-68
2023/07/25 06:54:04;;;;;;;3.97;2.63;;;18.20;99.90;;;;;;5180574;28;20347;-70
2023/07/25 06:56:38;;;;;;;3.50;2.45;;;18.20;99.90;;;;;;5190207;28;20034;-68
2023/07/25 06:59:10;;;;;;;3.03;2.58;;;18.20;99.90;;;;;;5197421;28;20040;-69
2023/07/25 07:01:46;;;;;;;3.40;2.38;;;18.20;99.90;;;;;;5191662;28;20047;-70
2023/07/25 07:04:17;;;;;;;4.22;2.47;;;18.20;99.90;;;;;;5196523;28;20029;-72
2023/07/25 07:06:54;;;;;;;5.88;2.55;;;18.20;99.90;;;;;;5198008;28;20040;-70
2023/07/25 07:09:28;;;;;;;8.27;3.05;;;18.10;99.90;;;;;;5196216;28;20033;-68
2023/07/25 07:11:59;;;;;;;4.00;2.30;;;18.10;99.90;;;;;;5180015;28;20039;-68
2023/07/25 07:14:30;;;;;;;3.00;2.20;;;18.10;99.90;;;;;;5197994;28;20056;-67
2023/07/25 07:17:04;;;;;;;3.72;2.38;;;18.10;99.90;;;;;;5194607;28;20238;-68
2023/07/25 07:19:37;;;;;;;3.63;2.42;;;18.10;99.90;;;;;;5180049;28;20037;-69
2023/07/25 07:22:14;;;;;;;2.85;2.50;;;18.00;99.90;;;;;;5179380;28;20033;-71
2023/07/25 07:24:46;;;;;;;3.70;2.30;;;18.00;99.90;;;;;;5197573;28;20325;-69
2023/07/25 07:27:20;;;;;;;3.55;2.38;;;18.00;99.90;;;;;;5213918;28;20037;-68
2023/07/25 07:29:54;;;;;;;4.15;2.60;;;18.10;99.90;;;;;;5197205;28;20387;-68
2023/07/25 07:32:28;;;;;;;3.40;2.30;;;18.00;99.90;;;;;;5177334;28;20039;-68
2023/07/25 07:35:03;;;;;;;3.55;2.75;;;18.00;99.90;;;;;;5197548;28;20249;-68
2023/07/25 07:37:37;;;;;;;3.55;2.40;;;18.00;99.90;;;;;;5180582;28;20048;-69
2023/07/25 07:40:08;;;;;;;4.53;2.80;;;18.00;99.90;;;;;;5180093;28;20414;-70
2023/07/25 07:42:41;;;;;;;6.47;2.97;;;18.00;99.90;;;;;;5196514;28;20041;-73
2023/07/25 07:45:13;;;;;;;3.78;3.00;;;17.90;99.90;;;;;;5194446;28;20031;-71
2023/07/25 07:47:47;;;;;;;3.60;2.83;;;17.80;99.90;;;;;;5178827;28;20210;-75
2023/07/25 07:50:19;;;;;;;6.00;2.85;;;17.80;99.90;;;;;;5178520;28;20038;-73
2023/07/25 07:52:51;;;;;;;5.63;3.25;;;17.80;99.90;;;;;;5182836;28;20026;-75
2023/07/25 07:55:23;;;;;;;3.92;3.03;;;17.70;99.90;;;;;;5200794;28;20028;-72
2023/07/25 07:57:56;;;;;;;5.25;2.90;;;17.70;99.90;;;;;;5197014;28;20048;-72
2023/07/25 08:00:28;;;;;;;3.33;3.00;;;17.70;99.90;;;;;;5167535;28;20042;-72
2023/07/25 08:02:59;;;;;;;5.60;3.33;;;17.60;99.90;;;;;;5199481;28;20049;-74
2023/07/25 08:05:33;;;;;;;2.92;2.40;;;17.50;99.90;;;;;;5204064;28;20218;-72
2023/07/25 08:08:04;;;;;;;3.20;2.47;;;17.40;99.90;;;;;;5203289;28;20237;-74
2023/07/25 08:10:35;;;;;;;3.08;2.42;;;17.40;99.90;;;;;;5222607;28;20031;-71
2023/07/25 08:13:12;;;;;;;3.22;2.50;;;17.30;99.90;;;;;;5221734;28;20025;-73
2023/07/25 08:15:45;;;;;;;3.45;2.30;;;17.30;99.90;;;;;;5194212;28;20326;-72
2023/07/25 08:18:17;;;;;;;4.93;2.78;;;17.30;99.90;;;;;;5201194;28;20609;-71
2023/07/25 08:20:56;;;;;;;5.43;2.10;;;17.20;99.90;;;;;;5219845;28;20324;-73
2023/07/25 08:23:28;;;;;;;2.53;2.08;;;17.10;99.90;;;;;;5201298;28;20047;-73
2023/07/25 08:26:00;;;;;;;2.92;2.30;;;17.10;99.90;;;;;;5219071;28;20035;-73
2023/07/25 08:28:31;;;;;;;3.83;2.40;;;17.00;99.90;;;;;;5200727;28;20037;-72
2023/07/25 08:31:06;;;;;;;3.17;2.40;;;17.00;99.90;;;;;;5222162;28;20037;-74
2023/07/25 08:33:38;;;;;;;6.15;2.20;;;16.90;99.90;;;;;;5234861;28;20377;-71
2023/07/25 08:36:09;;;;;;;4.45;2.22;;;16.80;99.90;;;;;;5220417;28;20047;-73
2023/07/25 08:38:43;;;;;;;3.75;2.88;;;16.80;99.90;;;;;;5220760;28;20037;-75
2023/07/25 08:41:24;;;;;;;4.07;2.58;;;16.70;99.90;;;;;;5197490;28;20098;-72
2023/07/25 08:44:00;;;;;;;6.28;2.65;;;16.60;99.90;;;;;;5209415;28;20029;-71
2023/07/25 08:46:34;;;;;;;3.20;2.33;;;16.60;99.90;;;;;;5217359;28;20056;-71
2023/07/25 08:49:11;;;;;;;3.30;2.40;;;16.60;99.90;;;;;;5219841;28;20039;-75
2023/07/25 08:51:44;;;;;;;4.85;2.45;;;16.50;99.90;;;;;;5216775;28;20054;-72
2023/07/25 08:54:34;;;;;;;4.28;2.60;;;16.60;99.90;;;;;;5212354;28;20055;-74
2023/07/25 08:57:06;;;;;;;4.60;2.45;;;16.70;99.90;;;;;;5199720;28;20171;-74
2023/07/25 08:59:41;;;;;;;3.08;2.42;;;16.60;99.90;;;;;;5219188;28;20017;-72
2023/07/25 09:02:18;;;;;;;;;;;16.50;99.90;;;;;;5186016;28;20061;-71
2023/07/25 09:04:50;;;;;;;3.47;2.60;;;16.50;99.90;;;;;;5180711;28;20195;-73
2023/07/25 09:07:24;;;;;;;3.40;2.75;;;16.70;99.90;;;;;;5166289;28;20223;-73
2023/07/25 09:09:55;;;;;;;5.30;2.55;;;16.80;99.90;;;;;;5198732;28;20038;-70
2023/07/25 09:12:29;;;;;;;4.78;3.33;;;16.70;99.90;;;;;;5177924;28;20578;-69
2023/07/25 09:15:00;;;;;;;2.67;2.47;;;16.70;99.90;;;;;;5195866;28;20132;-71
2023/07/25 09:17:32;;;;;;;5.40;2.33;;;16.70;99.90;;;;;;5173900;28;20325;-69
2023/07/25 09:20:05;;;;;;;3.08;2.55;;;16.70;99.90;;;;;;5172236;28;20202;-69
2023/07/25 09:22:58;;;;;;;2.40;2.20;;;16.60;99.90;;;;;;5184045;28;20029;-68
2023/07/25 09:25:31;;;;;;;2.50;2.00;;;16.70;99.90;;;;;;5198712;28;20309;-68
2023/07/25 09:28:11;;;;;;;2.95;2.17;;;16.80;99.90;;;;;;5196158;28;20018;-67
2023/07/25 09:30:52;;;;;;;2.60;2.05;;;16.90;99.90;;;;;;5186773;28;20022;-68
2023/07/25 09:33:30;;;;;;;3.47;2.42;;;17.00;99.90;;;;;;5199035;28;20040;-67
2023/07/25 09:36:03;;;;;;;2.90;2.13;;;17.10;99.90;;;;;;5198417;28;20053;-67
2023/07/25 09:38:49;;;;;;;2.15;1.92;;;17.30;99.90;;;;;;5199112;28;20343;-67
2023/07/25 09:41:25;;;;;;;3.22;1.80;;;17.50;99.90;;;;;;5199072;28;20025;-69
2023/07/25 09:44:05;;;;;;;2.10;1.90;;;17.80;99.90;;;;;;5199139;28;20044;-68
2023/07/25 09:46:37;;;;;;;1.70;1.52;;;18.00;99.90;;;;;;5194732;28;20040;-70
2023/07/25 09:49:08;;;;;;;2.10;1.83;;;18.20;99.90;;;;;;5197729;28;20214;-69
2023/07/25 09:51:59;;;;;;;2.47;1.48;;;18.40;99.90;;;;;;5198027;28;20021;-67
2023/07/25 09:54:31;;;;;;;1.98;1.67;;;18.70;99.90;;;;;;5193142;28;20278;-67
2023/07/25 09:57:02;;;;;;;1.88;1.58;;;19.00;99.90;;;;;;5187956;28;20029;-69
2023/07/25 09:59:40;;;;;;;2.38;1.88;;;19.40;99.90;;;;;;5196954;28;20327;-70
2023/07/25 10:02:15;;;;;;;2.45;1.60;;;19.50;99.90;;;;;;5207833;28;20041;-70
2023/07/25 10:04:47;;;;;;;2.33;1.75;;;19.70;1.00;;;;;;5217957;28;20032;-69
2023/07/25 10:07:20;;;;;;;1.70;1.60;;;19.80;99.90;;;;;;5214663;28;20384;-69
2023/07/25 10:09:56;;;;;;;1.20;1.10;;;20.20;99.90;;;;;;5219244;28;20025;-69
2023/07/25 10:12:27;;;;;;;1.77;1.30;;;20.60;99.90;;;;;;5218050;28;20462;-70
2023/07/25 10:14:59;;;;;;;1.30;1.20;;;21.00;1.00;;;;;;5218951;28;20049;-70
2023/07/25 10:17:35;;;;;;;1.77;1.60;;;21.40;1.00;;;;;;5216619;28;20309;-69
2023/07/25 10:20:08;;;;;;;1.77;1.40;;;21.40;1.00;;;;;;5215247;28;20029;-70
2023/07/25 10:22:44;;;;;;;2.33;1.65;;;21.40;1.00;;;;;;5219278;28;20029;-70
2023/07/25 10:25:27;;;;;;;1.95;1.48;;;21.50;1.00;;;;;;5213162;28;20322;-70
2023/07/25 10:28:01;;;;;;;1.75;1.40;;;21.50;1.00;;;;;;5186988;28;20053;-70
2023/07/25 10:30:44;;;;;;;2.05;1.45;;;21.30;1.00;;;;;;5193398;28;20052;-72
2023/07/25 10:33:16;;;;;;;1.33;1.23;;;21.30;1.00;;;;;;5186027;28;20041;-70
2023/07/25 10:35:53;;;;;;;1.48;1.38;;;21.20;1.00;;;;;;5181178;28;20033;-71
2023/07/25 10:38:40;;;;;;;2.65;1.40;;;21.20;1.00;;;;;;5180686;28;20041;-70
2023/07/25 10:41:19;;;;;;;1.98;1.63;;;21.30;1.00;;;;;;5181118;28;20211;-69
2023/07/25 10:43:55;;;;;;;1.63;1.38;;;21.20;1.00;;;;;;5197051;28;20046;-71
2023/07/25 10:46:35;;;;;;;3.15;1.40;;;21.30;76.10;;;;;;5230860;28;20124;-70
2023/07/25 10:49:18;;;;;;;1.90;1.73;;;21.10;1.00;;;;;;5216969;28;20040;-67
2023/07/25 10:51:55;;;;;;;1.48;1.35;;;20.40;99.90;;;;;;5215328;28;20214;-67
2023/07/25 10:54:27;;;;;;;1.90;1.67;;;20.00;99.90;;;;;;5215721;28;20169;-67
2023/07/25 10:57:20;;;;;;;2.38;1.77;;;19.70;99.90;;;;;;5213992;28;20256;-68
2023/07/25 10:59:59;;;;;;;2.95;1.60;;;19.60;99.90;;;;;;5214080;28;20312;-67
2023/07/25 11:02:36;;;;;;;2.30;1.80;;;19.60;99.90;;;;;;5207563;28;20306;-67
2023/07/25 11:05:27;;;;;;;2.05;1.67;;;19.70;99.90;;;;;;5216992;28;20209;-67
2023/07/25 11:07:59;;;;;;;2.95;1.90;;;19.90;99.90;;;;;;5216860;28;20045;-70
2023/07/25 11:10:30;;;;;;;2.05;1.85;;;19.90;99.90;;;;;;5200270;28;20063;-70
2023/07/25 11:13:04;;;;;;;3.83;2.33;;;19.50;99.90;;;;;;5216977;28;20067;-72
2023/07/25 11:15:35;;;;;;;3.47;2.17;;;19.10;99.90;;;;;;5192597;28;20369;-73
2023/07/25 11:18:07;;;;;;;2.17;1.50;;;18.80;99.90;;;;;;5197471;28;20059;-73
2023/07/25 11:20:38;;;;;;;1.67;1.50;;;18.60;99.90;;;;;;5197155;28;20025;-74
2023/07/25 11:23:09;;;;;;;2.60;1.70;;;18.70;99.90;;;;;;5197232;28;20025;-75
2023/07/25 11:25:42;;;;;;;2.90;2.13;;;18.70;99.90;;;;;;5223656;28;20301;-78
2023/07/25 11:28:16;;;;;;;4.05;1.70;;;18.70;99.90;;;;;;5212783;28;20048;-72
2023/07/25 11:30:48;;;;;;;2.78;1.98;;;18.80;99.90;;;;;;5207646;28;20029;-74
2023/07/25 11:33:23;;;;;;;2.47;1.88;;;19.00;99.90;;;;;;5195111;28;20344;-74
2023/07/25 11:35:55;;;;;;;3.28;1.90;;;19.30;99.90;;;;;;5197294;28;20026;-73
2023/07/25 11:38:27;;;;;;;2.15;1.95;;;19.40;99.90;;;;;;5212754;28;20021;-72
2023/07/25 11:40:59;;;;;;;3.30;1.75;;;19.70;99.90;;;;;;5199932;28;20527;-70
2023/07/25 11:43:31;;;;;;;2.65;2.05;;;19.90;99.90;;;;;;5216159;28;20080;-70
2023/07/25 11:46:06;;;;;;;3.72;1.85;;;20.20;99.90;;;;;;5196194;28;20303;-70
2023/07/25 11:48:40;;;;;;;2.45;1.88;;;20.70;99.90;;;;;;5196702;28;20029;-70
2023/07/25 11:51:11;;;;;;;2.88;2.10;;;21.20;99.90;;;;;;5197254;28;20044;-72
2023/07/25 11:53:45;;;;;;;2.33;2.08;;;22.00;99.90;;;;;;5233595;28;20037;-72
2023/07/25 11:56:16;;;;;;;2.83;1.52;;;21.80;99.90;;;;;;5195075;28;20047;-70
2023/07/25 11:58:50;;;;;;;1.52;1.42;;;21.50;99.90;;;;;;5192936;28;20026;-70
2023/07/25 12:01:32;;;;;;;2.50;2.10;;;21.90;99.90;;;;;;5197652;28;20025;-70
2023/07/25 12:04:17;;;;;;;2.20;1.60;;;22.30;29.70;;;;;;5199316;28;20082;-69
2023/07/25 12:06:58;;;;;;;2.10;1.65;;;22.80;1.00;;;;;;5218454;28;20104;-68
2023/07/25 12:09:32;;;;;;;1.85;1.55;;;23.60;1.00;;;;;;5219286;28;20044;-66
2023/07/25 12:12:16;;;;;;;3.08;1.60;;;24.50;99.90;;;;;;5199570;28;20031;-68
2023/07/25 12:14:55;;;;;;;1.45;1.30;;;25.50;1.00;;;;;;5216500;28;20036;-68
2023/07/25 12:17:44;;;;;;;1.77;1.38;;;26.40;1.00;;;;;;5214897;28;20344;-69
2023/07/25 12:20:22;;;;;;;1.75;1.10;;;26.60;39.00;;;;;;5215758;28;20359;-69
2023/07/25 12:23:09;;;;;;;2.10;1.45;;;25.70;1.00;;;;;;5215795;28;20028;-71
2023/07/25 12:25:41;;;;;;;1.50;1.30;;;25.30;1.00;;;;;;5216565;28;20036;-70
2023/07/25 12:28:17;;;;;;;1.42;1.33;;;25.00;99.90;;;;;;5217092;28;20036;-69
2023/07/25 12:30:48;;;;;;;4.55;1.52;;;25.30;99.90;;;;;;5213244;28;20037;-72
2023/07/25 12:33:22;;;;;;;2.03;1.65;;;25.40;1.00;;;;;;5217194;28;20345;-70
2023/07/25 12:35:54;;;;;;;2.25;1.42;;;24.90;1.00;;;;;;5199382;28;20350;-70
2023/07/25 12:38:25;;;;;;;1.98;1.20;;;24.70;1.00;;;;;;5212910;28;20040;-69
2023/07/25 12:40:57;;;;;;;3.03;1.55;;;24.10;99.90;;;;;;5209717;28;20232;-71
2023/07/25 12:43:28;;;;;;;1.55;1.40;;;24.80;1.00;;;;;;5201070;28;20041;-69
2023/07/25 12:46:04;;;;;;;1.45;1.15;;;25.30;1.00;;;;;;5200977;28;20025;-75
2023/07/25 12:48:38;;;;;;;1.40;1.30;;;26.20;1.00;;;;;;5218151;28;20029;-70
2023/07/25 12:51:11;;;;;;;1.88;1.40;;;26.80;1.00;;;;;;5218096;28;20037;-70
2023/07/25 12:53:42;;;;;;;1.17;1.08;;;27.50;99.90;;;;;;5215712;28;20315;-69
2023/07/25 12:56:13;;;;;;;1.15;1.05;;;28.20;1.00;;;;;;5216470;28;20056;-70
2023/07/25 12:58:45;;;;;;;1.40;1.30;;;28.70;1.00;;;;;;5209291;28;20041;-70
2023/07/25 13:01:21;;;;;;;1.42;1.30;;;29.20;1.00;;;;;;5197460;28;20123;-70
2023/07/25 13:03:52;;;;;;;1.58;1.35;;;29.40;99.90;;;;;;5216511;28;20298;-70
2023/07/25 13:06:23;;;;;;;2.08;1.58;;;28.80;99.90;;;;;;5214414;28;20043;-70
2023/07/25 13:08:54;;;;;;;1.35;1.20;;;27.90;99.90;;;;;;5203870;28;20071;-70
2023/07/25 13:11:28;;;;;;;1.20;1.10;;;27.60;99.90;;;;;;5221883;28;20033;-70
2023/07/25 13:13:59;;;;;;;1.70;1.45;;;28.40;99.90;;;;;;5221751;28;20025;-70
2023/07/25 13:16:30;;;;;;;2.13;1.45;;;28.80;99.90;;;;;;5218018;28;20043;-68
2023/07/25 13:19:01;;;;;;;1.52;1.30;;;28.60;1.00;;;;;;5220935;28;20024;-72
2023/07/25 13:21:35;;;;;;;2.08;1.10;;;28.60;1.00;;;;;;5237438;28;20036;-71
2023/07/25 13:24:09;;;;;;;1.92;1.42;;;28.90;21.20;;;;;;5216000;28;20029;-70
2023/07/25 13:26:40;;;;;;;2.53;1.20;;;29.50;64.40;;;;;;5219541;28;20036;-70